Time;durP1;ratioP1;P1;durP2;ratioP2;P2;SDS_P1;SDS_P2;PMS_P1;PMS_P2;Temp;Humidity;BMP_temperature;BMP_pressure;BME280_temperature;BME280_humidity;BME280_pressure;Samples;Min_cycle;Max_cycle;Signal;HPM_P1;HPM_P2
2022/09/25 00:00:11;;;;;;;;;;;24.60;48.90;;;;;;1579051;74;690;-70
2022/09/25 00:02:13;;;;;;;;;;;24.60;48.90;;;;;;1567292;74;690;-69
2022/09/25 00:04:15;;;;;;;;;;;24.50;49.00;;;;;;1576135;74;887;-69
2022/09/25 00:06:18;;;;;;;;;;;24.50;49.10;;;;;;1562297;74;1147;-70
2022/09/25 00:08:20;;;;;;;;;;;24.40;49.20;;;;;;1561045;75;1644;-68
2022/09/25 00:10:28;;;;;;;;;;;24.40;49.30;;;;;;1569734;74;727;-70
2022/09/25 00:12:26;;;;;;;;;;;24.30;49.40;;;;;;1562958;74;1591;-69
2022/09/25 00:14:28;;;;;;;;;;;24.30;49.50;;;;;;1571541;74;636;-69
2022/09/25 00:16:30;;;;;;;;;;;24.30;49.60;;;;;;1565498;74;1941;-70
2022/09/25 00:20:54;;;;;;;;;;;24.20;49.60;;;;;;1563688;74;739;-70
2022/09/25 00:22:57;;;;;;;;;;;24.20;49.70;;;;;;1563868;74;1868;-71
2022/09/25 00:24:59;;;;;;;;;;;24.20;49.70;;;;;;1563639;74;730;-68
2022/09/25 00:27:01;;;;;;;;;;;24.20;49.80;;;;;;1558106;75;740;-68
2022/09/25 00:29:03;;;;;;;;;;;24.10;49.80;;;;;;1566278;74;757;-69
2022/09/25 00:31:05;;;;;;;;;;;24.20;49.90;;;;;;1566227;74;726;-70
2022/09/25 00:33:07;;;;;;;;;;;24.10;49.90;;;;;;1573412;74;1445;-69
2022/09/25 00:35:09;;;;;;;;;;;24.10;49.90;;;;;;1560310;74;1153;-68
2022/09/25 00:37:10;;;;;;;;;;;24.10;50.00;;;;;;1563583;74;1922;-68
2022/09/25 00:39:12;;;;;;;;;;;24.10;50.00;;;;;;1569421;74;760;-68
2022/09/25 00:41:17;;;;;;;;;;;24.10;50.00;;;;;;1560847;74;762;-68
2022/09/25 00:43:38;;;;;;;;;;;24.20;49.90;;;;;;1564955;74;719;-68
2022/09/25 00:45:41;;;;;;;;;;;24.00;49.90;;;;;;1563273;74;1215;-70
2022/09/25 00:47:44;;;;;;;;;;;24.00;49.90;;;;;;1561236;74;678;-68
2022/09/25 00:49:46;;;;;;;;;;;24.10;50.10;;;;;;1561960;75;710;-70
2022/09/25 00:51:50;;;;;;;;;;;24.00;50.00;;;;;;1571144;74;696;-68
2022/09/25 00:53:52;;;;;;;;;;;24.00;50.00;;;;;;1572736;74;738;-67
2022/09/25 00:55:54;;;;;;;;;;;24.10;50.10;;;;;;1564017;74;1921;-68
2022/09/25 00:57:56;;;;;;;;;;;24.00;50.00;;;;;;1565642;74;872;-71
2022/09/25 00:59:59;;;;;;;;;;;24.00;50.10;;;;;;1557959;74;741;-66
2022/09/25 01:02:01;;;;;;;;;;;24.00;50.10;;;;;;1558076;74;816;-68
2022/09/25 01:04:02;;;;;;;;;;;24.00;50.10;;;;;;1558688;74;740;-68
2022/09/25 01:06:04;;;;;;;;;;;24.00;50.20;;;;;;1574975;74;1151;-69
2022/09/25 01:08:06;;;;;;;;;;;24.00;50.20;;;;;;1568276;74;721;-68
2022/09/25 01:10:09;;;;;;;;;;;24.00;50.20;;;;;;1565482;74;735;-69
2022/09/25 01:12:10;;;;;;;;;;;24.00;50.20;;;;;;1562477;75;757;-68
2022/09/25 01:14:17;;;;;;;;;;;24.00;50.20;;;;;;1556568;74;747;-68
2022/09/25 01:16:20;;;;;;;;;;;24.00;50.20;;;;;;1561945;74;1962;-71
2022/09/25 01:18:23;;;;;;;;;;;24.00;50.30;;;;;;1562298;74;715;-67
2022/09/25 01:20:33;;;;;;;;;;;24.00;50.40;;;;;;1563742;74;1922;-68
2022/09/25 01:22:53;;;;;;;;;;;24.00;50.40;;;;;;1561133;74;1540;-69
2022/09/25 01:24:56;;;;;;;;;;;24.00;50.40;;;;;;1564952;74;763;-70
2022/09/25 01:27:04;;;;;;;;;;;24.00;50.50;;;;;;1564414;74;1751;-67
2022/09/25 01:29:06;;;;;;;;;;;24.00;50.50;;;;;;1565809;74;1569;-68
2022/09/25 01:31:13;;;;;;;;;;;24.00;50.50;;;;;;1568292;74;718;-68
2022/09/25 01:33:18;;;;;;;;;;;24.00;50.50;;;;;;1559891;74;1936;-68
2022/09/25 01:35:38;;;;;;;;;;;24.00;50.50;;;;;;1563085;74;1096;-68
2022/09/25 01:37:42;;;;;;;;;;;24.00;50.50;;;;;;1560151;74;1919;-68
2022/09/25 01:39:49;;;;;;;;;;;24.00;50.50;;;;;;1565772;74;715;-68
2022/09/25 01:41:52;;;;;;;;;;;24.00;50.60;;;;;;1557705;75;1771;-68
2022/09/25 01:43:57;;;;;;;;;;;24.00;50.60;;;;;;1561519;74;2160;-68
2022/09/25 01:46:00;;;;;;;;;;;24.00;50.60;;;;;;1560803;74;1207;-67
2022/09/25 01:48:02;;;;;;;;;;;24.00;50.60;;;;;;1564366;74;737;-68
2022/09/25 01:50:05;;;;;;;;;;;24.00;50.70;;;;;;1564986;74;750;-68
2022/09/25 01:52:09;;;;;;;;;;;24.00;50.60;;;;;;1570486;74;727;-68
2022/09/25 01:54:11;;;;;;;;;;;23.90;50.60;;;;;;1562324;75;795;-68
2022/09/25 01:56:15;;;;;;;;;;;24.00;50.60;;;;;;1561462;74;1985;-67
2022/09/25 01:58:18;;;;;;;;;;;23.90;50.70;;;;;;1565064;74;847;-67
2022/09/25 02:00:21;;;;;;;;;;;23.90;50.70;;;;;;1558913;74;684;-68
2022/09/25 02:02:24;;;;;;;;;;;23.90;50.70;;;;;;1566808;74;690;-67
2022/09/25 02:04:28;;;;;;;;;;;24.00;50.70;;;;;;1570012;74;626;-68
2022/09/25 02:06:30;;;;;;;;;;;24.00;50.70;;;;;;1572652;74;1833;-68
2022/09/25 02:08:33;;;;;;;;;;;24.00;50.70;;;;;;1561989;74;770;-67
2022/09/25 02:10:36;;;;;;;;;;;24.00;50.70;;;;;;1575878;74;764;-68
2022/09/25 02:12:42;;;;;;;;;;;24.00;50.70;;;;;;1559343;74;741;-67
2022/09/25 02:14:45;;;;;;;;;;;24.00;50.70;;;;;;1571411;74;1693;-69
2022/09/25 02:16:47;;;;;;;;;;;24.00;50.70;;;;;;1572806;74;1952;-68
2022/09/25 02:21:11;;;;;;;;;;;24.00;50.70;;;;;;1564966;74;746;-70
2022/09/25 02:23:17;;;;;;;;;;;24.00;50.80;;;;;;1571930;74;692;-67
2022/09/25 02:25:25;;;;;;;;;;;24.00;50.70;;;;;;1580631;74;1593;-67
2022/09/25 02:27:27;;;;;;;;;;;24.00;50.70;;;;;;1568192;75;657;-67
2022/09/25 02:29:29;;;;;;;;;;;24.10;50.70;;;;;;1581003;74;719;-69
2022/09/25 02:31:35;;;;;;;;;;;24.20;50.70;;;;;;1584304;74;688;-68
2022/09/25 02:33:37;;;;;;;;;;;24.20;50.60;;;;;;1566722;74;1030;-68
2022/09/25 02:35:40;;;;;;;;;;;24.30;50.50;;;;;;1574583;74;1157;-68
2022/09/25 02:37:41;;;;;;;;;;;24.40;50.30;;;;;;1570014;74;1927;-69
2022/09/25 02:39:45;;;;;;;;;;;24.40;50.20;;;;;;1581306;74;672;-69
2022/09/25 02:41:57;;;;;;;;;;;24.40;50.00;;;;;;1581190;74;1814;-68
2022/09/25 02:44:07;;;;;;;;;;;24.50;50.00;;;;;;1565415;74;818;-70
2022/09/25 02:46:13;;;;;;;;;;;24.50;50.00;;;;;;1564041;74;1809;-68
2022/09/25 02:48:29;;;;;;;;;;;24.40;50.10;;;;;;1577403;74;765;-69
2022/09/25 02:50:38;;;;;;;;;;;24.40;50.20;;;;;;1569642;74;2082;-68
2022/09/25 02:52:47;;;;;;;;;;;24.40;50.50;;;;;;1579245;74;699;-70
2022/09/25 02:54:51;;;;;;;;;;;24.20;50.70;;;;;;1578286;74;780;-68
2022/09/25 02:57:10;;;;;;;;;;;24.20;50.90;;;;;;1564973;74;1950;-68
2022/09/25 02:59:16;;;;;;;;;;;24.20;51.10;;;;;;1567242;74;659;-68
2022/09/25 03:01:18;;;;;;;;;;;24.20;51.20;;;;;;1585551;74;2042;-68
2022/09/25 03:03:20;;;;;;;;;;;24.20;51.40;;;;;;1571588;74;801;-68
2022/09/25 03:05:22;;;;;;;;;;;24.00;51.30;;;;;;1563713;74;1172;-68
2022/09/25 03:07:24;;;;;;;;;;;24.00;51.40;;;;;;1570961;74;681;-68
2022/09/25 03:09:26;;;;;;;;;;;24.00;51.40;;;;;;1569102;74;689;-68
2022/09/25 03:11:28;;;;;;;;;;;24.00;51.50;;;;;;1575991;74;719;-68
2022/09/25 03:13:32;;;;;;;;;;;24.00;51.50;;;;;;1571082;74;835;-69
2022/09/25 03:15:36;;;;;;;;;;;24.00;51.50;;;;;;1571933;74;1165;-65
2022/09/25 03:17:38;;;;;;;;;;;24.00;51.60;;;;;;1573643;74;1906;-68
2022/09/25 03:19:40;;;;;;;;;;;24.00;51.80;;;;;;1574394;74;754;-69
2022/09/25 03:21:42;;;;;;;;;;;24.00;51.80;;;;;;1574937;74;1554;-68
2022/09/25 03:23:44;;;;;;;;;;;24.00;51.80;;;;;;1584623;74;663;-68
2022/09/25 03:25:46;;;;;;;;;;;24.00;51.70;;;;;;1577961;74;1126;-68
2022/09/25 03:27:48;;;;;;;;;;;24.00;51.80;;;;;;1567780;74;671;-68
2022/09/25 03:29:50;;;;;;;;;;;24.00;51.80;;;;;;1580891;74;691;-71
2022/09/25 03:31:52;;;;;;;;;;;24.00;51.70;;;;;;1578307;74;754;-68
2022/09/25 03:33:54;;;;;;;;;;;24.00;51.80;;;;;;1574364;74;680;-68
2022/09/25 03:36:09;;;;;;;;;;;24.00;51.80;;;;;;1576052;74;1154;-68
2022/09/25 03:38:11;;;;;;;;;;;24.00;51.70;;;;;;1564856;74;1946;-68
2022/09/25 03:40:13;;;;;;;;;;;24.00;51.70;;;;;;1577886;74;586;-69
2022/09/25 03:42:15;;;;;;;;;;;24.00;51.80;;;;;;1577786;75;675;-68
2022/09/25 03:44:17;;;;;;;;;;;24.00;51.80;;;;;;1577888;74;780;-69
2022/09/25 03:46:20;;;;;;;;;;;24.00;51.80;;;;;;1562553;74;1190;-68
2022/09/25 03:48:22;;;;;;;;;;;24.00;51.70;;;;;;1577101;74;671;-70
2022/09/25 03:50:24;;;;;;;;;;;24.00;51.60;;;;;;1578489;74;700;-68
2022/09/25 03:52:26;;;;;;;;;;;24.00;51.60;;;;;;1569209;74;704;-68
2022/09/25 03:54:28;;;;;;;;;;;24.20;51.70;;;;;;1578933;74;733;-67
2022/09/25 03:56:30;;;;;;;;;;;24.20;51.40;;;;;;1579980;74;1961;-68
2022/09/25 03:58:32;;;;;;;;;;;24.20;51.30;;;;;;1577533;74;700;-68
2022/09/25 04:00:34;;;;;;;;;;;24.20;51.10;;;;;;1566662;74;624;-68
2022/09/25 04:02:35;;;;;;;;;;;24.30;51.10;;;;;;1573676;74;848;-68
2022/09/25 04:04:37;;;;;;;;;;;24.30;51.10;;;;;;1577860;74;678;-67
2022/09/25 04:06:39;;;;;;;;;;;24.30;51.00;;;;;;1566836;74;1154;-69
2022/09/25 04:08:41;;;;;;;;;;;24.30;51.00;;;;;;1583250;74;669;-69
2022/09/25 04:10:43;;;;;;;;;;;24.40;50.70;;;;;;1574179;74;812;-68
2022/09/25 04:12:45;;;;;;;;;;;24.40;50.50;;;;;;1577202;74;678;-68
2022/09/25 04:14:47;;;;;;;;;;;24.60;50.40;;;;;;1575851;74;658;-67
2022/09/25 04:16:49;;;;;;;;;;;24.60;50.20;;;;;;1570597;74;1955;-70
2022/09/25 04:18:51;;;;;;;;;;;24.50;50.00;;;;;;1561177;74;796;-66
2022/09/25 04:20:53;;;;;;;;;;;24.60;50.00;;;;;;1567809;74;655;-69
2022/09/25 04:22:55;;;;;;;;;;;24.70;49.90;;;;;;1582251;74;697;-69
2022/09/25 04:24:57;;;;;;;;;;;24.70;49.70;;;;;;1580417;74;788;-68
2022/09/25 04:26:59;;;;;;;;;;;24.70;49.60;;;;;;1576988;74;1140;-68
2022/09/25 04:29:02;;;;;;;;;;;24.70;49.40;;;;;;1564144;74;754;-69
2022/09/25 04:31:04;;;;;;;;;;;24.80;49.40;;;;;;1573855;74;762;-69
2022/09/25 04:35:26;;;;;;;;;;;24.80;49.30;;;;;;1571806;74;1621;-67
2022/09/25 04:37:28;;;;;;;;;;;24.80;49.20;;;;;;1577389;74;1941;-68
2022/09/25 04:39:30;;;;;;;;;;;24.80;49.30;;;;;;1582998;74;793;-68
2022/09/25 04:41:32;;;;;;;;;;;24.80;49.20;;;;;;1565670;74;810;-68
2022/09/25 04:43:34;;;;;;;;;;;24.80;49.20;;;;;;1565815;74;681;-70
2022/09/25 04:45:36;;;;;;;;;;;24.80;49.20;;;;;;1581153;74;1172;-70
2022/09/25 04:47:38;;;;;;;;;;;24.80;49.10;;;;;;1574509;74;695;-68
2022/09/25 04:49:39;;;;;;;;;;;24.80;49.20;;;;;;1568244;74;707;-68
2022/09/25 04:51:41;;;;;;;;;;;24.80;49.10;;;;;;1578301;74;704;-68
2022/09/25 04:53:43;;;;;;;;;;;24.80;49.20;;;;;;1569848;74;732;-68
2022/09/25 04:55:46;;;;;;;;;;;24.80;49.30;;;;;;1572448;74;1175;-68
2022/09/25 04:57:52;;;;;;;;;;;24.80;49.40;;;;;;1570631;74;1930;-69
2022/09/25 04:59:54;;;;;;;;;;;24.70;49.40;;;;;;1579307;74;947;-67
2022/09/25 05:01:56;;;;;;;;;;;24.80;49.40;;;;;;1561657;74;680;-68
2022/09/25 05:03:58;;;;;;;;;;;24.80;49.40;;;;;;1568850;74;750;-67
2022/09/25 05:05:59;;;;;;;;;;;24.70;49.40;;;;;;1575539;74;1162;-67
2022/09/25 05:08:02;;;;;;;;;;;24.80;49.30;;;;;;1577801;74;714;-68
2022/09/25 05:10:04;;;;;;;;;;;24.80;49.10;;;;;;1577697;74;702;-69
2022/09/25 05:12:06;;;;;;;;;;;24.80;49.20;;;;;;1576492;74;748;-66
2022/09/25 05:14:08;;;;;;;;;;;24.80;49.00;;;;;;1577644;74;1596;-66
2022/09/25 05:16:10;;;;;;;;;;;24.80;49.00;;;;;;1566570;74;1142;-66
2022/09/25 05:18:13;;;;;;;;;;;24.80;49.10;;;;;;1565850;74;1943;-66
2022/09/25 05:20:16;;;;;;;;;;;24.70;49.20;;;;;;1559039;74;694;-66
2022/09/25 05:22:17;;;;;;;;;;;24.60;49.20;;;;;;1572993;74;685;-68
2022/09/25 05:24:19;;;;;;;;;;;24.60;49.30;;;;;;1572074;74;933;-66
2022/09/25 05:26:22;;;;;;;;;;;24.60;49.40;;;;;;1581223;74;1168;-66
2022/09/25 05:28:24;;;;;;;;;;;24.50;49.40;;;;;;1572621;74;859;-67
2022/09/25 05:30:26;;;;;;;;;;;24.50;49.50;;;;;;1579682;74;682;-66
2022/09/25 05:32:29;;;;;;;;;;;24.40;49.50;;;;;;1576753;74;807;-68
2022/09/25 05:34:31;;;;;;;;;;;24.40;49.60;;;;;;1573965;74;615;-68
2022/09/25 05:36:33;;;;;;;;;;;24.50;49.90;;;;;;1573439;71;230928;-67
2022/09/25 05:38:36;;;;;;;;;;;24.40;49.80;;;;;;1555346;75;1947;-69
2022/09/25 05:40:40;;;;;;;;;;;24.50;50.00;;;;;;1548245;75;640;-69
2022/09/25 05:42:43;;;;;;;;;;;24.50;50.00;;;;;;1554413;74;622;-68
2022/09/25 05:44:44;;;;;;;;;;;24.50;49.80;;;;;;1551782;75;667;-68
2022/09/25 05:46:46;;;;;;;;;;;24.70;49.70;;;;;;1554946;74;1242;-67
2022/09/25 05:48:48;;;;;;;;;;;24.70;49.40;;;;;;1545866;74;708;-69
2022/09/25 05:50:51;;;;;;;;;;;24.70;49.30;;;;;;1551394;75;717;-70
2022/09/25 05:52:56;;;;;;;;;;;24.80;49.20;;;;;;1550964;75;812;-68
2022/09/25 05:54:58;;;;;;;;;;;24.70;49.30;;;;;;1554220;74;653;-70
2022/09/25 05:57:00;;;;;;;;;;;24.70;49.40;;;;;;1554364;74;1098;-72
2022/09/25 05:59:02;;;;;;;;;;;24.80;49.20;;;;;;1555223;75;1930;-69
2022/09/25 06:01:04;;;;;;;;;;;24.80;49.20;;;;;;1551619;75;691;-71
2022/09/25 06:03:06;;;;;;;;;;;24.80;49.00;;;;;;1557249;75;699;-70
2022/09/25 06:05:08;;;;;;;;;;;24.80;49.00;;;;;;1556938;74;787;-69
2022/09/25 06:07:10;;;;;;;;;;;24.80;49.10;;;;;;1553100;74;1117;-70
2022/09/25 06:09:12;;;;;;;;;;;24.90;49.10;;;;;;1548888;74;1548;-72
2022/09/25 06:11:14;;;;;;;;;;;24.80;49.00;;;;;;1556160;74;694;-69
2022/09/25 06:13:16;;;;;;;;;;;24.90;49.20;;;;;;1551089;75;832;-70
2022/09/25 06:15:17;;;;;;;;;;;24.90;49.10;;;;;;1551938;75;736;-68
2022/09/25 06:17:19;;;;;;;;;;;24.90;49.10;;;;;;1553126;75;1113;-69
2022/09/25 06:19:21;;;;;;;;;;;24.80;49.10;;;;;;1556268;74;762;-68
2022/09/25 06:21:23;;;;;;;;;;;24.90;49.20;;;;;;1552067;75;917;-68
2022/09/25 06:23:25;;;;;;;;;;;24.80;49.10;;;;;;1560419;75;725;-69
2022/09/25 06:25:28;;;;;;;;;;;24.90;49.10;;;;;;1560021;74;685;-69
2022/09/25 06:27:30;;;;;;;;;;;24.80;49.10;;;;;;1557237;74;1149;-68
2022/09/25 06:29:32;;;;;;;;;;;24.80;49.10;;;;;;1557882;75;712;-68
2022/09/25 06:31:34;;;;;;;;;;;24.80;49.20;;;;;;1552902;74;669;-68
2022/09/25 06:33:36;;;;;;;;;;;24.80;49.20;;;;;;1563096;74;682;-68
2022/09/25 06:35:41;;;;;;;;;;;24.80;49.30;;;;;;1559631;74;1157;-67
2022/09/25 06:37:43;;;;;;;;;;;24.70;49.20;;;;;;1566597;74;1954;-65
2022/09/25 06:39:45;;;;;;;;;;;24.70;49.20;;;;;;1563964;74;742;-68
2022/09/25 06:41:47;;;;;;;;;;;24.70;49.40;;;;;;1566188;75;726;-67
2022/09/25 06:43:49;;;;;;;;;;;24.60;49.40;;;;;;1573090;74;933;-67
2022/09/25 06:45:51;;;;;;;;;;;24.60;49.50;;;;;;1551630;75;1152;-66
2022/09/25 06:47:56;;;;;;;;;;;24.50;49.60;;;;;;1553255;74;733;-67
2022/09/25 06:49:59;;;;;;;;;;;24.50;49.70;;;;;;1549408;75;935;-68
2022/09/25 06:52:01;;;;;;;;;;;24.40;49.70;;;;;;1556192;75;698;-66
2022/09/25 06:54:03;;;;;;;;;;;24.40;49.70;;;;;;1566617;74;732;-67
2022/09/25 06:56:05;;;;;;;;;;;24.50;49.90;;;;;;1560615;74;1110;-68
2022/09/25 06:58:07;;;;;;;;;;;24.40;49.90;;;;;;1564253;75;1936;-68
2022/09/25 07:00:10;;;;;;;;;;;24.40;49.90;;;;;;1559290;75;685;-67
2022/09/25 07:04:31;;;;;;;;;;;24.40;49.90;;;;;;1551179;74;1663;-67
2022/09/25 07:06:36;;;;;;;;;;;24.30;50.00;;;;;;1566439;74;1591;-67
2022/09/25 07:08:37;;;;;;;;;;;24.40;50.00;;;;;;1575284;74;1768;-68
2022/09/25 07:10:39;;;;;;;;;;;24.40;50.00;;;;;;1573789;74;749;-67
2022/09/25 07:12:41;;;;;;;;;;;24.30;50.10;;;;;;1565223;74;655;-67
2022/09/25 07:14:45;;;;;;;;;;;24.30;50.10;;;;;;1564068;75;708;-67
2022/09/25 07:16:47;;;;;;;;;;;24.30;50.10;;;;;;1580910;74;2048;-67
2022/09/25 07:18:50;;;;;;;;;;;24.30;50.10;;;;;;1579811;74;1943;-68
2022/09/25 07:20:52;;;;;;;;;;;24.30;50.10;;;;;;1563818;75;758;-67
2022/09/25 07:22:56;;;;;;;;;;;24.30;50.10;;;;;;1576773;75;658;-67
2022/09/25 07:24:58;;;;;;;;;;;24.30;50.20;;;;;;1557802;74;1991;-67
2022/09/25 07:26:59;;;;;;;;;;;24.40;49.90;;;;;;1559370;74;1143;-67
2022/09/25 07:29:02;;;;;;;;;;;24.30;49.80;;;;;;1563373;75;683;-67
2022/09/25 07:31:11;;;;;;;;;;;24.40;49.90;;;;;;1565160;74;644;-67
2022/09/25 07:33:13;;;;;;;;;;;24.30;49.90;;;;;;1569132;74;668;-67
2022/09/25 07:35:15;;;;;;;;;;;24.20;49.80;;;;;;1571911;74;714;-67
2022/09/25 07:37:17;;;;;;;;;;;24.30;50.00;;;;;;1567137;74;1107;-68
2022/09/25 07:39:19;;;;;;;;;;;24.20;49.90;;;;;;1562569;74;1943;-67
2022/09/25 07:41:21;;;;;;;;;;;24.20;49.90;;;;;;1566109;75;779;-67
2022/09/25 07:43:23;;;;;;;;;;;24.30;50.00;;;;;;1567084;75;686;-70
2022/09/25 07:45:25;;;;;;;;;;;24.30;50.00;;;;;;1570821;74;736;-67
2022/09/25 07:47:27;;;;;;;;;;;24.30;50.00;;;;;;1561905;74;1071;-67
2022/09/25 07:49:30;;;;;;;;;;;24.30;49.80;;;;;;1568445;75;815;-67
2022/09/25 07:51:31;;;;;;;;;;;24.30;49.90;;;;;;1566907;74;763;-68
2022/09/25 07:53:33;;;;;;;;;;;24.20;49.80;;;;;;1564039;74;661;-67
2022/09/25 07:55:35;;;;;;;;;;;24.30;49.90;;;;;;1563076;74;1163;-67
2022/09/25 07:57:37;;;;;;;;;;;24.20;49.80;;;;;;1563505;75;682;-67
2022/09/25 07:59:39;;;;;;;;;;;24.20;49.80;;;;;;1557301;74;1922;-67
2022/09/25 08:01:41;;;;;;;;;;;24.10;49.80;;;;;;1572417;74;1592;-67
2022/09/25 08:03:43;;;;;;;;;;;24.20;49.80;;;;;;1564734;75;617;-67
2022/09/25 08:05:45;;;;;;;;;;;24.20;49.70;;;;;;1565348;74;1156;-67
2022/09/25 08:07:46;;;;;;;;;;;24.10;49.80;;;;;;1574471;74;700;-68
2022/09/25 08:09:48;;;;;;;;;;;24.10;49.80;;;;;;1559759;74;725;-68
2022/09/25 08:11:50;;;;;;;;;;;24.20;49.80;;;;;;1572960;74;681;-68
2022/09/25 08:13:52;;;;;;;;;;;24.20;49.80;;;;;;1563092;74;777;-67
2022/09/25 08:15:55;;;;;;;;;;;24.20;49.80;;;;;;1564437;74;1128;-67
2022/09/25 08:17:57;;;;;;;;;;;24.20;49.80;;;;;;1571582;74;587;-67
2022/09/25 08:19:59;;;;;;;;;;;24.20;49.70;;;;;;1574610;74;1936;-67
2022/09/25 08:22:01;;;;;;;;;;;24.30;49.70;;;;;;1572541;75;648;-67
2022/09/25 08:24:03;;;;;;;;;;;24.20;49.70;;;;;;1579460;75;716;-68
2022/09/25 08:26:05;;;;;;;;;;;24.20;49.70;;;;;;1572088;75;1136;-67
2022/09/25 08:28:07;;;;;;;;;;;24.20;49.80;;;;;;1573359;74;673;-68
2022/09/25 08:30:09;;;;;;;;;;;24.20;49.80;;;;;;1566199;74;823;-67
2022/09/25 08:32:11;;;;;;;;;;;24.10;49.90;;;;;;1562036;75;678;-67
2022/09/25 08:34:15;;;;;;;;;;;24.20;49.90;;;;;;1565913;74;721;-67
2022/09/25 08:36:17;;;;;;;;;;;24.20;49.80;;;;;;1563888;74;1173;-66
2022/09/25 08:38:18;;;;;;;;;;;24.30;49.90;;;;;;1560227;74;1935;-68
2022/09/25 08:40:22;;;;;;;;;;;24.30;49.90;;;;;;1557958;75;785;-67
2022/09/25 08:42:35;;;;;;;;;;;24.30;50.00;;;;;;1560702;75;1844;-68
2022/09/25 08:44:41;;;;;;;;;;;24.20;50.00;;;;;;1575594;74;784;-68
2022/09/25 08:49:10;;;;;;;;;;;24.20;50.20;;;;;;1562225;74;1671;-68
2022/09/25 08:51:11;;;;;;;;;;;24.20;50.20;;;;;;1566340;75;1680;-68
2022/09/25 08:53:21;;;;;;;;;;;24.20;50.30;;;;;;1573620;74;689;-68
2022/09/25 08:57:47;;;;;;;;;;;24.10;50.40;;;;;;1564925;74;1671;-68
2022/09/25 08:59:50;;;;;;;;;;;24.10;50.50;;;;;;1563892;74;1935;-67
2022/09/25 09:01:54;;;;;;;;;;;24.10;50.50;;;;;;1561957;74;757;-67
2022/09/25 09:04:01;;;;;;;;;;;24.10;50.50;;;;;;1567788;74;732;-68
2022/09/25 09:06:05;;;;;;;;;;;24.10;50.40;;;;;;1559508;74;1131;-67
2022/09/25 09:08:11;;;;;;;;;;;24.10;50.50;;;;;;1567236;74;1759;-68
2022/09/25 09:10:31;;;;;;;;;;;24.10;50.50;;;;;;1559888;74;930;-68
2022/09/25 09:12:34;;;;;;;;;;;24.10;50.50;;;;;;1559288;75;656;-67
2022/09/25 09:14:38;;;;;;;;;;;24.10;50.50;;;;;;1563246;75;681;-69
2022/09/25 09:16:59;;;;;;;;;;;24.20;50.50;;;;;;1563682;74;2134;-68
2022/09/25 09:19:02;;;;;;;;;;;24.20;50.60;;;;;;1567642;74;1912;-73
2022/09/25 09:21:08;;;;;;;;;;;24.20;50.50;;;;;;1568115;74;693;-67
2022/09/25 09:23:10;;;;;;;;;;;24.40;50.50;;;;;;1565110;74;1480;-67
2022/09/25 09:25:17;;;;;;;;;;;24.40;50.20;;;;;;1554084;74;747;-67
2022/09/25 09:27:20;;;;;;;;;;;24.40;50.10;;;;;;1562473;74;1131;-67
2022/09/25 09:29:30;;;;;;;;;;;24.50;50.00;;;;;;1558115;75;725;-67
2022/09/25 09:31:44;;;;;;;;;;;24.50;49.80;;;;;;1557603;74;1951;-67
2022/09/25 09:34:00;;;;;;;;;;;24.60;49.60;;;;;;1561134;74;658;-67
2022/09/25 09:36:04;;;;;;;;;;;24.60;49.40;;;;;;1561776;74;1926;-67
2022/09/25 09:38:25;;;;;;;;;;;24.70;49.40;;;;;;1560907;74;801;-67
2022/09/25 09:40:40;;;;;;;;;;;24.60;49.10;;;;;;1560611;75;1888;-67
2022/09/25 09:42:50;;;;;;;;;;;24.60;49.10;;;;;;1553794;75;2056;-67
2022/09/25 09:44:59;;;;;;;;;;;24.60;48.90;;;;;;1559565;75;1537;-67
2022/09/25 09:47:05;;;;;;;;;;;24.60;49.00;;;;;;1561086;74;1163;-67
2022/09/25 09:49:25;;;;;;;;;;;24.70;49.10;;;;;;1569799;74;1806;-65
2022/09/25 09:51:29;;;;;;;;;;;24.70;49.00;;;;;;1553276;74;774;-67
2022/09/25 09:53:33;;;;;;;;;;;24.70;49.00;;;;;;1567385;75;1828;-65
2022/09/25 09:55:41;;;;;;;;;;;24.70;48.90;;;;;;1560915;74;1542;-65
2022/09/25 09:57:45;;;;;;;;;;;24.60;48.80;;;;;;1556057;74;616;-67
2022/09/25 09:59:48;;;;;;;;;;;24.70;48.80;;;;;;1562797;74;1946;-68
2022/09/25 10:01:52;;;;;;;;;;;24.70;48.80;;;;;;1564115;74;788;-66
2022/09/25 10:03:56;;;;;;;;;;;24.70;48.70;;;;;;1551359;74;1081;-66
2022/09/25 10:05:58;;;;;;;;;;;24.70;48.50;;;;;;1561681;74;1668;-66
2022/09/25 10:08:00;;;;;;;;;;;24.70;48.60;;;;;;1562391;74;830;-66
2022/09/25 10:10:04;;;;;;;;;;;24.70;48.60;;;;;;1559828;74;752;-66
2022/09/25 10:12:13;;;;;;;;;;;24.70;48.60;;;;;;1555054;75;758;-67
2022/09/25 10:14:19;;;;;;;;;;;24.80;48.60;;;;;;1553772;75;687;-66
2022/09/25 10:16:22;;;;;;;;;;;24.70;48.60;;;;;;1554670;75;1129;-66
2022/09/25 10:18:25;;;;;;;;;;;24.60;48.60;;;;;;1566456;74;769;-66
2022/09/25 10:20:28;;;;;;;;;;;24.60;48.70;;;;;;1569432;75;1950;-66
2022/09/25 10:22:35;;;;;;;;;;;24.60;48.80;;;;;;1566468;74;635;-66
2022/09/25 10:24:54;;;;;;;;;;;24.60;48.80;;;;;;1553112;74;795;-69
2022/09/25 10:26:55;;;;;;;;;;;24.50;48.70;;;;;;1552645;74;1129;-66
2022/09/25 10:28:58;;;;;;;;;;;24.40;48.70;;;;;;1555652;74;769;-65
2022/09/25 10:31:00;;;;;;;;;;;24.40;48.70;;;;;;1555982;74;721;-67
2022/09/25 10:33:15;;;;;;;;;;;24.30;48.80;;;;;;1558774;75;938;-66
2022/09/25 10:35:18;;;;;;;;;;;24.30;48.80;;;;;;1553812;74;912;-66
2022/09/25 10:37:20;;;;;;;;;;;24.30;48.80;;;;;;1556603;74;1842;-66
2022/09/25 10:39:24;;;;;;;;;;;24.30;48.90;;;;;;1564369;74;1930;-66
2022/09/25 10:41:26;;;;;;;;;;;24.30;48.90;;;;;;1574467;74;627;-67
2022/09/25 10:43:28;;;;;;;;;;;24.30;48.90;;;;;;1557731;75;745;-66
2022/09/25 10:45:31;;;;;;;;;;;24.40;48.90;;;;;;1565743;74;649;-67
2022/09/25 10:50:10;;;;;;;;;;;24.40;48.70;;;;;;1563255;74;1727;-66
2022/09/25 10:52:21;;;;;;;;;;;24.40;48.70;;;;;;1559446;74;692;-65
2022/09/25 10:54:20;;;;;;;;;;;24.30;48.70;;;;;;1577372;74;1603;-65
2022/09/25 10:56:25;;;;;;;;;;;24.20;48.50;;;;;;1570452;74;1146;-66
2022/09/25 10:58:28;;;;;;;;;;;24.30;48.70;;;;;;1567942;74;1494;-67
2022/09/25 11:00:32;;;;;;;;;;;24.20;48.60;;;;;;1559516;74;1955;-66
2022/09/25 11:02:36;;;;;;;;;;;24.20;48.50;;;;;;1554168;74;1726;-66
2022/09/25 11:04:38;;;;;;;;;;;24.20;48.40;;;;;;1564506;75;1813;-67
2022/09/25 11:06:41;;;;;;;;;;;24.20;48.40;;;;;;1573725;74;1165;-66
2022/09/25 11:08:43;;;;;;;;;;;24.20;48.40;;;;;;1566570;74;1955;-66
2022/09/25 11:10:50;;;;;;;;;;;24.20;48.30;;;;;;1563981;74;676;-66
2022/09/25 11:12:52;;;;;;;;;;;24.20;48.10;;;;;;1563951;75;692;-65
2022/09/25 11:14:57;;;;;;;;;;;24.20;48.00;;;;;;1566686;75;714;-67
2022/09/25 11:17:16;;;;;;;;;;;24.20;47.60;;;;;;1569182;74;1694;-67
2022/09/25 11:19:21;;;;;;;;;;;24.20;47.20;;;;;;1571072;74;1919;-68
2022/09/25 11:21:24;;;;;;;;;;;24.10;47.00;;;;;;1567880;74;700;-66
2022/09/25 11:23:28;;;;;;;;;;;24.10;46.80;;;;;;1574638;75;737;-67
2022/09/25 11:25:34;;;;;;;;;;;24.00;46.60;;;;;;1563412;74;1879;-67
2022/09/25 11:27:39;;;;;;;;;;;24.10;46.70;;;;;;1571480;74;652;-68
2022/09/25 11:29:43;;;;;;;;;;;24.10;46.70;;;;;;1569237;74;664;-67
2022/09/25 11:31:46;;;;;;;;;;;24.00;46.50;;;;;;1574198;74;644;-67
2022/09/25 11:34:01;;;;;;;;;;;24.00;46.50;;;;;;1576833;75;729;-66
2022/09/25 11:36:05;;;;;;;;;;;24.00;46.60;;;;;;1561989;71;2092;-67
2022/09/25 11:38:08;;;;;;;;;;;24.10;46.80;;;;;;1591124;74;572;-68
2022/09/25 11:42:42;;;;;;;;;;;24.10;46.80;;;;;;1578599;74;1604;-67
2022/09/25 11:44:53;;;;;;;;;;;24.10;46.80;;;;;;1571302;74;738;-67
2022/09/25 11:47:05;;;;;;;;;;;24.20;46.80;;;;;;1588627;72;1329;-66
2022/09/25 11:49:10;;;;;;;;;;;24.20;46.80;;;;;;1574850;74;658;-67
2022/09/25 11:51:21;;;;;;;;;;;24.20;46.60;;;;;;1560284;74;667;-66
2022/09/25 11:53:31;;;;;;;;;;;24.30;46.60;;;;;;1570405;74;595;-68
2022/09/25 11:55:43;;;;;;;;;;;24.30;46.50;;;;;;1578052;74;1761;-67
2022/09/25 11:58:03;;;;;;;;;;;24.30;46.50;;;;;;1587411;74;1638;-67
2022/09/25 12:00:12;;;;;;;;;;;24.40;46.40;;;;;;1576833;74;1932;-67
2022/09/25 12:02:18;;;;;;;;;;;24.40;46.40;;;;;;1569083;74;737;-67
2022/09/25 12:04:21;;;;;;;;;;;24.30;46.40;;;;;;1573716;74;1620;-68
2022/09/25 12:06:37;;;;;;;;;;;24.30;46.40;;;;;;1574765;74;1201;-67
2022/09/25 12:08:57;;;;;;;;;;;24.20;46.50;;;;;;1568695;74;2287;-67
2022/09/25 12:11:10;;;;;;;;;;;24.20;46.60;;;;;;1574412;74;773;-70
2022/09/25 12:13:14;;;;;;;;;;;24.10;46.80;;;;;;1588300;74;2186;-67
2022/09/25 12:15:34;;;;;;;;;;;24.10;47.00;;;;;;1572336;74;738;-67
2022/09/25 12:17:37;;;;;;;;;;;24.00;47.00;;;;;;1578727;74;1128;-67
2022/09/25 12:19:41;;;;;;;;;;;24.00;47.30;;;;;;1573154;74;1931;-66
2022/09/25 12:21:51;;;;;;;;;;;24.10;47.60;;;;;;1578669;74;2003;-67
2022/09/25 12:23:56;;;;;;;;;;;24.00;47.60;;;;;;1589451;74;780;-67
2022/09/25 12:26:00;;;;;;;;;;;24.10;47.60;;;;;;1581755;74;1151;-67
2022/09/25 12:28:05;;;;;;;;;;;24.30;47.30;;;;;;1565978;75;705;-68
2022/09/25 12:30:26;;;;;;;;;;;24.50;47.10;;;;;;1578915;74;738;-67
2022/09/25 12:32:28;;;;;;;;;;;24.50;46.80;;;;;;1577419;74;1748;-67
2022/09/25 12:34:49;;;;;;;;;;;24.60;46.50;;;;;;1570891;74;696;-66
2022/09/25 12:36:53;;;;;;;;;;;24.60;46.50;;;;;;1574722;74;1147;-66
2022/09/25 12:38:59;;;;;;;;;;;24.60;46.50;;;;;;1565860;74;620;-66